Southampton, NY

10:43 AM EDT on August 30, 2015 (GMT -0400)
Shinnecock Hills | | Change Station
CLOSE
Current Station
Personal Weather Station
Location: Southampton, NY
Elevation: 20 ft
Nearby Weather Stations

Elev 20 ft 40.90 °N, 72.44 °W | Updated 2 minutes ago

Clear
Clear
77.4 °F
Feels Like 79 °F
N
4.0
Wind Variable Wind from West
Gusts 5.0 mph

Today
High -- | Low -- °F
--% Chance of Precip.
Yesterday
High -- | Low -- °F
Precip. -- in
6:14 AM 7:25 PM
Full, 99% visible
Pressure 30.12 in
Visibility 10.0 miles
Clouds Clear
Heat Index 79 °F
Dew Point 72 °F
Humidity 83%
Rainfall Not available.
Snow Depth Not available.
UV 5 out of 12
Pollen 9.90 out of 12
Air Quality Not available.
Flu Activity Not available.
METAR KFOK 301353Z 25006KT 10SM CLR 27/18 A3013 RMK AO2 SLP200 T02670183
Pressure 30.12 in
Visibility 10.0 miles
Clouds Clear
Heat Index 79 °F
Dew Point 72 °F
Humidity 83%
Rainfall Not available.
Snow Depth Not available.
UV 5 out of 12
Pollen 9.90 out of 12
Air Quality Not available.
Flu Activity Not available.
METAR KFOK 301353Z 25006KT 10SM CLR 27/18 A3013 RMK AO2 SLP200 T02670183

10-Day Weather Forecast

×

Almanac

Astronomy

Aug. 30, 2015 Rise Set
Actual Time
Civil Twilight
Nautical Twilight
Astronomical Twilight
Moon
Length of Visible Light
Length of Day
Tomorrow will be .
, % of the Moon is Illuminated

Today's Extremes

State Highs State Lows

Community

WunderPhotos

Upload Photos

1,850,974 photos uploaded!

WunderBlogs® & News

Nearby

Air Quality

  Air Quality AQ Index Pollutant
Not available.

Snow Depth

Station Depth Elevation

Earthquake Activity

City Distance Mag. Time & Date
Minimum magnitude displayed is 2.5.

Coastal Water Temperatures

Place Temperature

Stations

Nearby Weather Stations

Station Location Temp. Windchill Dew Point Humidity Wind Precip. Elev Updated Type